Time;durP1;ratioP1;P1;durP2;ratioP2;P2;SDS_P1;SDS_P2;PMS_P1;PMS_P2;Temp;Humidity;BMP_temperature;BMP_pressure;BME280_temperature;BME280_humidity;BME280_pressure;Samples;Min_cycle;Max_cycle;Signal;HPM_P1;HPM_P2
2022/03/15 00:00:39;;;;;;;186.38;92.57;;;0.90;99.90;;;;;;5090539;28;20048;-77
2022/03/15 00:03:07;;;;;;;195.35;92.88;;;0.90;99.90;;;;;;5090848;28;20044;-77
2022/03/15 00:05:35;;;;;;;187.07;91.95;;;0.80;99.90;;;;;;5088021;28;20048;-76
2022/03/15 00:08:02;;;;;;;177.30;88.80;;;0.80;99.90;;;;;;5089858;28;20376;-77
2022/03/15 00:10:30;;;;;;;182.32;90.18;;;0.80;99.90;;;;;;5094091;28;20051;-76
2022/03/15 00:12:58;;;;;;;192.60;97.53;;;0.80;99.90;;;;;;5096311;28;20517;-78
2022/03/15 00:15:27;;;;;;;202.68;102.03;;;0.70;99.90;;;;;;5090335;28;20523;-77
2022/03/15 00:17:56;;;;;;;197.13;95.68;;;0.60;99.90;;;;;;5076801;28;20140;-77
2022/03/15 00:20:24;;;;;;;185.18;93.30;;;0.60;99.90;;;;;;5093144;28;20057;-77
2022/03/15 00:22:55;;;;;;;203.77;97.28;;;0.70;99.90;;;;;;5089843;28;20067;-77
2022/03/15 00:25:23;;;;;;;213.27;105.32;;;0.70;99.90;;;;;;5089522;28;20072;-77
2022/03/15 00:27:52;;;;;;;211.68;103.35;;;0.70;99.90;;;;;;5092524;28;20388;-76
2022/03/15 00:30:21;;;;;;;210.50;102.95;;;0.60;99.90;;;;;;5091900;28;20499;-77
2022/03/15 00:32:53;;;;;;;214.10;104.55;;;0.50;99.90;;;;;;5089526;28;20120;-77
2022/03/15 00:35:25;;;;;;;220.85;108.28;;;0.50;99.90;;;;;;5074709;28;20045;-77
2022/03/15 00:37:54;;;;;;;230.10;115.47;;;0.50;99.90;;;;;;5091147;28;20053;-78
2022/03/15 00:40:25;;;;;;;224.00;113.75;;;0.60;99.90;;;;;;5080346;28;20036;-78
2022/03/15 00:42:53;;;;;;;216.55;108.32;;;0.60;99.90;;;;;;5096662;28;20051;-77
2022/03/15 00:45:28;;;;;;;204.48;103.32;;;0.60;99.90;;;;;;5095779;28;20040;-77
2022/03/15 00:47:57;;;;;;;196.85;100.00;;;0.60;99.90;;;;;;5089838;28;20051;-76
2022/03/15 00:50:29;;;;;;;191.77;98.53;;;0.60;99.90;;;;;;5096052;28;20048;-77
2022/03/15 00:52:59;;;;;;;181.80;93.10;;;0.60;99.90;;;;;;5098706;28;20074;-77
2022/03/15 00:55:27;;;;;;;198.32;96.43;;;0.60;99.90;;;;;;5105826;28;20067;-77
2022/03/15 00:57:55;;;;;;;232.75;109.63;;;0.60;99.90;;;;;;5097863;28;20503;-77
2022/03/15 01:00:23;;;;;;;237.60;114.50;;;0.60;99.90;;;;;;5099051;28;20054;-77
2022/03/15 01:02:51;;;;;;;225.32;108.40;;;0.60;99.90;;;;;;5098252;28;20145;-77
2022/03/15 01:05:19;;;;;;;225.43;108.88;;;0.60;99.90;;;;;;5102489;28;20108;-76
2022/03/15 01:07:48;;;;;;;227.13;108.38;;;0.50;99.90;;;;;;5087717;28;20036;-76
2022/03/15 01:10:16;;;;;;;211.80;101.45;;;0.50;99.90;;;;;;5084019;28;20418;-75
2022/03/15 01:12:44;;;;;;;185.45;89.70;;;0.40;99.90;;;;;;5098044;28;20063;-76
2022/03/15 01:15:11;;;;;;;161.90;80.88;;;0.40;99.90;;;;;;5100386;28;20075;-77
2022/03/15 01:17:39;;;;;;;149.40;73.35;;;0.40;99.90;;;;;;5087159;28;20039;-77
2022/03/15 01:20:09;;;;;;;127.88;64.03;;;0.30;99.90;;;;;;5096810;28;20093;-77
2022/03/15 01:22:37;;;;;;;111.80;57.22;;;0.40;99.90;;;;;;5076076;28;20044;-77
2022/03/15 01:25:09;;;;;;;130.48;62.30;;;0.40;99.90;;;;;;5076656;28;20036;-77
2022/03/15 01:27:39;;;;;;;131.95;65.55;;;0.40;99.90;;;;;;5093601;28;20067;-77
2022/03/15 01:30:07;;;;;;;127.18;62.20;;;0.30;99.90;;;;;;5093628;28;20055;-77
2022/03/15 01:32:35;;;;;;;137.80;67.18;;;0.20;99.90;;;;;;5077949;28;20032;-77
2022/03/15 01:35:04;;;;;;;142.73;70.93;;;0.30;99.90;;;;;;5084940;28;20575;-77
2022/03/15 01:37:32;;;;;;;150.88;75.72;;;0.30;99.90;;;;;;5077812;28;20127;-77
2022/03/15 01:40:10;;;;;;;142.85;71.95;;;0.40;99.90;;;;;;5082206;28;20124;-77
2022/03/15 01:42:38;;;;;;;137.10;70.35;;;0.40;99.90;;;;;;5105890;28;20055;-78
2022/03/15 01:45:06;;;;;;;134.90;66.43;;;0.30;99.90;;;;;;5103350;28;20046;-77
2022/03/15 01:47:35;;;;;;;135.95;68.65;;;0.30;99.90;;;;;;5097595;28;20039;-77
2022/03/15 01:50:03;;;;;;;148.20;71.57;;;0.10;99.90;;;;;;5082886;28;20036;-77
2022/03/15 01:52:31;;;;;;;197.23;92.40;;;0.10;99.90;;;;;;5096030;28;20395;-77
2022/03/15 01:54:59;;;;;;;186.18;88.63;;;0.10;99.90;;;;;;5087104;28;20048;-77
2022/03/15 01:57:28;;;;;;;149.23;73.07;;;0.10;99.90;;;;;;5108012;28;20051;-77
2022/03/15 01:59:57;;;;;;;127.70;63.70;;;0.10;99.90;;;;;;5109418;28;20040;-77
2022/03/15 02:02:27;;;;;;;136.32;68.05;;;0.10;99.90;;;;;;5075738;28;20526;-77
2022/03/15 02:04:55;;;;;;;133.10;66.85;;;0.00;99.90;;;;;;5084979;28;20064;-78
2022/03/15 02:07:22;;;;;;;132.63;68.40;;;-0.10;99.90;;;;;;5076267;28;20048;-77
2022/03/15 02:09:51;;;;;;;139.20;70.38;;;-0.10;99.90;;;;;;5076804;28;20119;-77
2022/03/15 02:12:19;;;;;;;135.98;68.78;;;0.00;99.90;;;;;;5076252;28;20094;-77
2022/03/15 02:14:48;;;;;;;130.65;66.05;;;0.00;99.90;;;;;;5075676;28;20052;-77
2022/03/15 02:17:15;;;;;;;135.55;66.10;;;0.00;99.90;;;;;;5076731;28;20044;-77
2022/03/15 02:19:44;;;;;;;128.18;62.40;;;0.00;99.90;;;;;;5084708;28;20040;-77
2022/03/15 02:22:14;;;;;;;120.97;60.42;;;0.00;99.90;;;;;;5080170;28;20067;-77
2022/03/15 02:24:42;;;;;;;123.55;64.35;;;0.00;99.90;;;;;;5076452;28;20120;-77
2022/03/15 02:27:12;;;;;;;147.93;72.18;;;0.00;99.90;;;;;;5087968;28;20056;-76
2022/03/15 02:29:40;;;;;;;137.20;73.90;;;0.00;99.90;;;;;;5095100;28;20079;-77
2022/03/15 02:32:09;;;;;;;127.78;66.53;;;-0.10;99.90;;;;;;5077882;28;20040;-75
2022/03/15 02:34:37;;;;;;;143.85;75.15;;;-0.10;99.90;;;;;;5098682;28;20101;-76
2022/03/15 02:37:05;;;;;;;119.97;61.65;;;-0.10;99.90;;;;;;5094701;28;20044;-76
2022/03/15 02:39:34;;;;;;;119.10;62.47;;;0.00;99.90;;;;;;5096052;28;20517;-77
2022/03/15 02:42:01;;;;;;;120.50;62.40;;;0.00;99.90;;;;;;5095043;28;20044;-77
2022/03/15 02:44:28;;;;;;;114.88;58.35;;;0.00;99.90;;;;;;5092871;28;20043;-77
2022/03/15 02:46:56;;;;;;;114.90;59.95;;;0.00;99.90;;;;;;5086242;28;20040;-77
2022/03/15 02:49:23;;;;;;;114.90;61.67;;;-0.10;99.90;;;;;;5090494;28;20066;-77
2022/03/15 02:51:51;;;;;;;127.28;62.65;;;-0.10;99.90;;;;;;5092547;28;20180;-77
2022/03/15 02:54:18;;;;;;;124.55;63.97;;;-0.20;99.90;;;;;;5093923;28;20052;-77
2022/03/15 02:56:47;;;;;;;140.55;71.28;;;-0.10;99.90;;;;;;5094285;28;20036;-77
2022/03/15 02:59:15;;;;;;;133.77;67.30;;;-0.10;99.90;;;;;;5094542;28;20044;-78
2022/03/15 03:01:43;;;;;;;140.75;71.72;;;-0.20;99.90;;;;;;5094017;28;20384;-77
2022/03/15 03:04:10;;;;;;;124.50;66.95;;;-0.20;99.90;;;;;;5079176;28;20757;-77
2022/03/15 03:06:38;;;;;;;135.48;72.65;;;-0.30;99.90;;;;;;5085239;28;20047;-77
2022/03/15 03:09:06;;;;;;;132.55;72.38;;;-0.40;99.90;;;;;;5093886;28;20044;-77
2022/03/15 03:11:33;;;;;;;129.70;72.97;;;-0.50;99.90;;;;;;5094195;28;20044;-77
2022/03/15 03:14:04;;;;;;;121.25;70.72;;;-0.50;1.00;;;;;;5093750;28;20036;-77
2022/03/15 03:16:34;;;;;;;112.43;66.70;;;-0.50;1.00;;;;;;5094202;28;20040;-77
2022/03/15 03:19:08;;;;;;;112.88;65.22;;;-0.50;1.00;;;;;;5092630;28;20040;-76
2022/03/15 03:21:36;;;;;;;99.78;57.15;;;-0.50;1.00;;;;;;5093466;28;20047;-77
2022/03/15 03:24:06;;;;;;;94.57;54.22;;;-0.50;1.00;;;;;;5093562;28;20050;-77
2022/03/15 03:26:37;;;;;;;100.10;56.20;;;-0.40;1.00;;;;;;5086841;28;20142;-77
2022/03/15 03:29:09;;;;;;;93.32;53.10;;;-0.30;1.00;;;;;;5094260;28;20062;-77
2022/03/15 03:31:37;;;;;;;98.43;55.22;;;-0.30;1.00;;;;;;5094095;28;20048;-77
2022/03/15 03:34:05;;;;;;;102.43;55.10;;;-0.20;1.00;;;;;;5104022;28;20044;-77
2022/03/15 03:36:36;;;;;;;97.07;53.70;;;-0.20;1.00;;;;;;5098861;28;20071;-77
2022/03/15 03:39:05;;;;;;;99.53;52.67;;;-0.20;1.00;;;;;;5097894;28;20059;-77
2022/03/15 03:41:33;;;;;;;106.00;51.85;;;-0.20;1.00;;;;;;5093104;28;20507;-77
2022/03/15 03:44:02;;;;;;;97.13;50.85;;;-0.20;1.00;;;;;;5092497;28;20055;-77
2022/03/15 03:46:32;;;;;;;93.07;50.35;;;-0.20;1.00;;;;;;5093407;28;20487;-77
2022/03/15 03:49:00;;;;;;;96.22;49.47;;;-0.20;1.00;;;;;;5090508;28;20040;-77
2022/03/15 03:51:28;;;;;;;99.15;50.75;;;-0.30;1.00;;;;;;5091722;28;20409;-77
2022/03/15 03:53:56;;;;;;;98.95;50.72;;;-0.30;99.90;;;;;;5092262;28;20134;-77
2022/03/15 03:56:24;;;;;;;91.53;48.22;;;-0.30;99.90;;;;;;5092413;28;20047;-77
2022/03/15 03:58:51;;;;;;;88.68;45.33;;;-0.30;99.90;;;;;;5094487;28;20055;-77
2022/03/15 04:01:19;;;;;;;93.93;45.17;;;-0.30;99.90;;;;;;5109105;28;20056;-77
2022/03/15 04:03:49;;;;;;;84.07;43.92;;;-0.40;99.90;;;;;;5108831;28;20048;-77
2022/03/15 04:06:16;;;;;;;81.40;43.13;;;-0.40;99.90;;;;;;5110466;28;20135;-78
2022/03/15 04:08:46;;;;;;;97.68;49.55;;;-0.40;99.90;;;;;;5112446;28;20048;-77
2022/03/15 04:11:17;;;;;;;108.65;55.90;;;-0.40;1.00;;;;;;5109982;28;20522;-77
2022/03/15 04:13:45;;;;;;;121.57;61.10;;;-0.30;1.00;;;;;;5098833;28;20047;-77
2022/03/15 04:16:13;;;;;;;125.25;62.17;;;-0.30;99.90;;;;;;5099244;28;20067;-78
2022/03/15 04:18:42;;;;;;;113.60;59.63;;;-0.40;99.90;;;;;;5087736;28;20109;-77
2022/03/15 04:21:11;;;;;;;110.10;55.72;;;-0.40;99.90;;;;;;5097547;28;20054;-78
2022/03/15 04:23:39;;;;;;;107.55;55.10;;;-0.40;99.90;;;;;;5099500;28;20079;-77
2022/03/15 04:26:06;;;;;;;104.80;56.60;;;-0.30;99.90;;;;;;5098317;28;20376;-77
2022/03/15 04:28:34;;;;;;;115.05;56.83;;;-0.40;99.90;;;;;;5096051;28;20108;-77
2022/03/15 04:31:01;;;;;;;107.65;55.35;;;-0.40;99.90;;;;;;5097600;28;20491;-77
2022/03/15 04:33:29;;;;;;;104.35;57.55;;;-0.50;99.90;;;;;;5099280;28;20037;-76
2022/03/15 04:35:56;;;;;;;105.63;57.10;;;-0.60;1.00;;;;;;5095720;27;20128;-77
2022/03/15 04:38:25;;;;;;;115.28;62.15;;;-0.60;1.00;;;;;;5075839;28;20090;-76
2022/03/15 04:40:54;;;;;;;122.60;63.13;;;-0.60;1.00;;;;;;5075938;28;20109;-76
2022/03/15 04:43:21;;;;;;;119.68;62.40;;;-0.60;1.00;;;;;;5076375;28;20041;-77
2022/03/15 04:45:50;;;;;;;115.65;64.45;;;-0.60;1.00;;;;;;5076690;28;20070;-77
2022/03/15 04:48:18;;;;;;;125.00;68.93;;;-0.70;1.00;;;;;;5077370;28;20047;-77
2022/03/15 04:50:46;;;;;;;119.63;70.20;;;-0.60;1.00;;;;;;5075990;28;20048;-77
2022/03/15 04:53:14;;;;;;;110.40;62.08;;;-0.60;1.00;;;;;;5076063;28;20407;-77
2022/03/15 04:55:43;;;;;;;111.75;58.28;;;-0.50;1.00;;;;;;5075645;28;20048;-77
2022/03/15 04:58:11;;;;;;;97.60;53.13;;;-0.50;1.00;;;;;;5075192;28;20074;-77
2022/03/15 05:00:38;;;;;;;98.40;52.58;;;-0.50;1.00;;;;;;5075782;28;20424;-77
2022/03/15 05:03:07;;;;;;;92.57;50.38;;;-0.50;1.00;;;;;;5077400;28;20078;-77
2022/03/15 05:05:34;;;;;;;118.15;62.95;;;-0.50;1.00;;;;;;5081692;28;20082;-77
2022/03/15 05:08:02;;;;;;;122.45;62.75;;;-0.50;1.00;;;;;;5095390;28;20047;-77
2022/03/15 05:13:16;;;;;;;145.68;75.00;;;-0.60;1.00;;;;;;5096251;28;20113;-77
2022/03/15 05:15:44;;;;;;;144.38;78.13;;;-0.60;1.00;;;;;;5096535;28;20044;-76
2022/03/15 05:18:11;;;;;;;164.80;81.07;;;-0.60;1.00;;;;;;5094723;28;20364;-77
2022/03/15 05:20:39;;;;;;;128.88;70.72;;;-0.70;1.00;;;;;;5094144;28;20039;-77
2022/03/15 05:23:06;;;;;;;97.07;55.67;;;-0.60;1.00;;;;;;5096729;28;20044;-76
2022/03/15 05:25:34;;;;;;;97.75;56.08;;;-0.50;1.00;;;;;;5100124;28;20044;-77
2022/03/15 05:28:01;;;;;;;126.75;67.15;;;-0.50;1.00;;;;;;5081614;28;20043;-77
2022/03/15 05:30:31;;;;;;;131.85;75.72;;;-0.40;1.00;;;;;;5101493;22;20044;-79
2022/03/15 05:32:59;;;;;;;125.38;70.40;;;-0.40;1.00;;;;;;5085622;28;20046;-79
2022/03/15 05:35:27;;;;;;;128.52;69.60;;;-0.40;1.00;;;;;;5100243;28;20060;-78
2022/03/15 05:37:55;;;;;;;116.82;66.93;;;-0.30;1.00;;;;;;5100427;28;20049;-78
2022/03/15 05:40:25;;;;;;;111.93;62.55;;;-0.30;1.00;;;;;;5101091;28;20074;-78
2022/03/15 05:42:53;;;;;;;121.03;67.00;;;-0.30;1.00;;;;;;5100810;28;20514;-78
2022/03/15 05:45:21;;;;;;;131.18;68.55;;;-0.10;1.00;;;;;;5085384;28;20119;-78
2022/03/15 05:47:50;;;;;;;137.68;72.10;;;-0.10;1.00;;;;;;5072762;28;20080;-80
2022/03/15 05:50:18;;;;;;;154.68;78.35;;;0.00;1.00;;;;;;5078153;28;20478;-78
2022/03/15 05:52:45;;;;;;;156.32;80.07;;;0.00;99.90;;;;;;5091107;28;20046;-77
2022/03/15 05:55:13;;;;;;;176.30;87.45;;;0.10;99.90;;;;;;5086911;28;20068;-79
2022/03/15 05:57:41;;;;;;;182.32;87.20;;;0.20;99.90;;;;;;5090986;28;20078;-78
2022/03/15 06:00:10;;;;;;;183.63;91.60;;;0.20;99.90;;;;;;5089124;28;20154;-77
2022/03/15 06:02:41;;;;;;;185.48;88.22;;;0.30;99.90;;;;;;5083733;28;20044;-78
2022/03/15 06:05:12;;;;;;;181.52;89.70;;;0.40;99.90;;;;;;5079851;28;20123;-77
2022/03/15 06:07:45;;;;;;;185.20;88.00;;;0.70;99.90;;;;;;5080882;28;20140;-80
2022/03/15 06:10:13;;;;;;;179.93;89.70;;;1.00;99.90;;;;;;5076301;28;20483;-79
2022/03/15 06:12:40;;;;;;;180.35;94.30;;;1.40;99.90;;;;;;5080701;28;20041;-79
2022/03/15 06:15:09;;;;;;;207.48;108.85;;;1.70;99.90;;;;;;5095481;28;20093;-79
2022/03/15 06:17:45;;;;;;;200.95;103.32;;;1.90;99.90;;;;;;5081021;28;20059;-78
2022/03/15 06:20:16;;;;;;;190.50;96.45;;;2.10;99.90;;;;;;5065246;28;20044;-78
2022/03/15 06:22:47;;;;;;;196.55;96.47;;;2.20;99.90;;;;;;5076122;28;20040;-77
2022/03/15 06:25:15;;;;;;;193.98;96.97;;;2.20;99.90;;;;;;5075772;28;20049;-78
2022/03/15 06:27:44;;;;;;;189.88;96.93;;;2.20;99.90;;;;;;5078439;28;20131;-78
2022/03/15 06:30:15;;;;;;;205.10;101.07;;;2.30;98.00;;;;;;5079835;28;20106;-80
2022/03/15 06:32:43;;;;;;;169.07;90.35;;;2.30;90.80;;;;;;5082275;28;20053;-80
2022/03/15 06:35:13;;;;;;;162.77;87.28;;;2.40;72.10;;;;;;5102152;28;20103;-79
2022/03/15 06:37:45;;;;;;;172.75;91.22;;;2.50;53.30;;;;;;5100690;28;20044;-79
2022/03/15 06:40:14;;;;;;;174.30;89.80;;;2.60;37.80;;;;;;5099728;28;20051;-79
2022/03/15 06:42:42;;;;;;;154.95;86.03;;;2.70;24.20;;;;;;5100635;28;20054;-79
2022/03/15 06:45:15;;;;;;;149.35;84.47;;;2.80;19.60;;;;;;5102860;28;20047;-78
2022/03/15 06:47:43;;;;;;;162.50;84.43;;;3.00;12.00;;;;;;5091881;28;20047;-79
2022/03/15 06:50:12;;;;;;;168.90;92.57;;;3.40;1.00;;;;;;5099344;28;20066;-79
2022/03/15 06:52:40;;;;;;;141.45;78.72;;;3.60;1.00;;;;;;5083612;28;20050;-79
2022/03/15 06:55:11;;;;;;;155.50;84.97;;;3.90;1.00;;;;;;5079268;28;20090;-79
2022/03/15 06:57:39;;;;;;;165.52;87.75;;;4.10;1.00;;;;;;5088057;28;20044;-79
2022/03/15 07:00:10;;;;;;;137.27;79.55;;;4.20;1.00;;;;;;5101358;28;20070;-79
2022/03/15 07:02:37;;;;;;;143.13;79.93;;;4.50;1.00;;;;;;5099314;28;20199;-79
2022/03/15 07:05:06;;;;;;;152.63;81.07;;;4.60;1.00;;;;;;5087860;28;20044;-79
2022/03/15 07:07:34;;;;;;;157.88;86.57;;;4.80;1.00;;;;;;5088986;28;20040;-77
2022/03/15 07:10:05;;;;;;;160.07;87.07;;;4.90;1.00;;;;;;5075896;28;20135;-77
2022/03/15 07:12:35;;;;;;;164.68;86.72;;;4.90;1.00;;;;;;5074378;28;20048;-77
2022/03/15 07:15:04;;;;;;;152.52;79.80;;;5.20;1.00;;;;;;5076176;28;20036;-79
2022/03/15 07:17:33;;;;;;;138.70;73.70;;;5.50;1.00;;;;;;5074670;28;20442;-78
2022/03/15 07:20:01;;;;;;;93.75;51.22;;;5.70;1.00;;;;;;5076595;28;20067;-79
2022/03/15 07:22:29;;;;;;;109.22;60.28;;;5.80;1.00;;;;;;5080857;28;20056;-78
2022/03/15 07:24:56;;;;;;;105.78;57.67;;;6.00;1.00;;;;;;5075979;28;20044;-79
2022/03/15 07:27:24;;;;;;;95.65;52.17;;;6.20;1.00;;;;;;5073404;28;20143;-77
2022/03/15 07:29:53;;;;;;;109.78;51.03;;;6.40;1.00;;;;;;5073126;28;20044;-78
2022/03/15 07:32:21;;;;;;;115.38;57.95;;;6.60;1.00;;;;;;5074014;28;20447;-77
2022/03/15 07:34:49;;;;;;;101.82;57.72;;;6.70;1.00;;;;;;5093074;28;20059;-77
2022/03/15 07:37:17;;;;;;;107.95;58.55;;;6.80;1.00;;;;;;5081553;28;20392;-78
2022/03/15 07:39:45;;;;;;;130.57;70.88;;;7.10;1.00;;;;;;5077407;28;20044;-78
2022/03/15 07:42:13;;;;;;;131.88;73.80;;;7.50;1.00;;;;;;5074142;28;20048;-76
2022/03/15 07:44:43;;;;;;;122.90;65.80;;;7.80;1.00;;;;;;5086528;28;20510;-78
2022/03/15 07:47:14;;;;;;;124.30;66.28;;;8.00;1.00;;;;;;5095582;28;20520;-78
2022/03/15 07:49:44;;;;;;;130.23;69.18;;;8.20;1.00;;;;;;5096262;28;20121;-79
2022/03/15 07:52:13;;;;;;;125.43;68.45;;;8.30;1.00;;;;;;5087631;28;20040;-77
2022/03/15 07:54:40;;;;;;;124.10;65.75;;;8.40;1.00;;;;;;5082294;28;20040;-77
2022/03/15 07:57:09;;;;;;;116.35;66.50;;;8.50;1.00;;;;;;5080975;28;20477;-79
2022/03/15 07:59:37;;;;;;;106.78;60.00;;;8.80;1.00;;;;;;5097247;28;20028;-79
2022/03/15 08:02:05;;;;;;;93.30;53.17;;;9.10;1.00;;;;;;5099639;28;20079;-78
2022/03/15 08:04:34;;;;;;;93.20;52.97;;;9.40;1.00;;;;;;5095579;28;20131;-79
2022/03/15 08:07:02;;;;;;;88.70;50.60;;;9.70;1.00;;;;;;5082786;28;20101;-78
2022/03/15 08:09:29;;;;;;;91.38;47.67;;;9.90;1.00;;;;;;5080739;28;20139;-79
2022/03/15 08:11:57;;;;;;;90.28;49.40;;;10.00;1.00;;;;;;5082912;28;20127;-77
2022/03/15 08:14:24;;;;;;;87.15;51.58;;;10.00;1.00;;;;;;5081145;28;20517;-78
2022/03/15 08:16:52;;;;;;;88.93;49.25;;;10.10;1.00;;;;;;5083405;28;20056;-78
2022/03/15 08:19:20;;;;;;;86.47;49.80;;;10.20;1.00;;;;;;5082246;28;20098;-80
2022/03/15 08:21:49;;;;;;;77.45;45.38;;;10.30;1.00;;;;;;5084229;28;20049;-78
2022/03/15 08:24:19;;;;;;;64.63;38.30;;;10.40;1.00;;;;;;5087728;28;20044;-79
2022/03/15 08:26:46;;;;;;;70.28;41.03;;;10.70;1.00;;;;;;5084901;28;20048;-80
2022/03/15 08:29:14;;;;;;;71.05;38.95;;;10.80;1.00;;;;;;5081381;28;20044;-79
2022/03/15 08:31:42;;;;;;;69.68;37.38;;;10.80;1.00;;;;;;5082070;28;20044;-78
2022/03/15 08:34:12;;;;;;;64.05;39.55;;;11.00;1.00;;;;;;5081213;28;20044;-78
2022/03/15 08:36:40;;;;;;;63.00;36.47;;;10.90;1.00;;;;;;5084984;28;20392;-78
2022/03/15 08:39:09;;;;;;;80.07;37.25;;;10.80;1.00;;;;;;5079953;28;20050;-79
2022/03/15 08:41:38;;;;;;;54.80;34.03;;;10.90;1.00;;;;;;5077960;28;20464;-79
2022/03/15 08:44:05;;;;;;;57.20;33.58;;;10.80;1.00;;;;;;5078882;28;20048;-79
2022/03/15 08:46:33;;;;;;;57.83;34.05;;;10.90;1.00;;;;;;5081701;28;20067;-80
2022/03/15 08:49:04;;;;;;;61.22;33.97;;;10.90;1.00;;;;;;5081933;28;20045;-80
2022/03/15 08:51:31;;;;;;;61.05;35.78;;;10.90;1.00;;;;;;5083255;28;20044;-79
2022/03/15 08:54:00;;;;;;;57.45;32.85;;;11.10;1.00;;;;;;5083244;28;20048;-78
2022/03/15 08:56:29;;;;;;;60.22;33.78;;;11.40;1.00;;;;;;5086091;28;20041;-79
2022/03/15 08:58:56;;;;;;;64.03;35.78;;;11.50;1.00;;;;;;5089000;28;20072;-79
2022/03/15 09:01:24;;;;;;;70.78;37.38;;;11.60;1.00;;;;;;5087662;28;20071;-77
2022/03/15 09:03:51;;;;;;;58.80;30.55;;;11.60;1.00;;;;;;5087555;28;20049;-79
2022/03/15 09:06:19;;;;;;;52.25;28.55;;;11.80;1.00;;;;;;5087360;28;20537;-78
2022/03/15 09:08:46;;;;;;;43.72;25.92;;;12.00;1.00;;;;;;5082988;28;20055;-79
2022/03/15 09:11:14;;;;;;;40.17;21.05;;;12.10;1.00;;;;;;5082539;28;20040;-78
2022/03/15 09:13:43;;;;;;;33.60;19.35;;;12.40;1.00;;;;;;5082290;28;20044;-79
2022/03/15 09:16:12;;;;;;;35.00;19.75;;;12.50;1.00;;;;;;5082089;28;20116;-78
2022/03/15 09:18:40;;;;;;;31.42;20.63;;;12.60;1.00;;;;;;5080432;28;20037;-79
2022/03/15 09:21:09;;;;;;;34.85;22.27;;;12.90;1.00;;;;;;5079358;28;20072;-79
2022/03/15 09:23:36;;;;;;;45.22;25.77;;;12.90;1.00;;;;;;5087321;28;20504;-79
2022/03/15 09:26:04;;;;;;;45.30;24.75;;;12.90;1.00;;;;;;5079533;28;20100;-78
2022/03/15 09:28:33;;;;;;;43.58;24.92;;;12.90;1.00;;;;;;5080604;28;20036;-78
2022/03/15 09:31:02;;;;;;;46.63;26.13;;;13.00;1.00;;;;;;5085677;28;20083;-79
2022/03/15 09:33:30;;;;;;;40.45;26.02;;;13.00;1.00;;;;;;5089405;28;20521;-77
2022/03/15 09:35:58;;;;;;;44.75;26.90;;;13.10;1.00;;;;;;5100459;28;20044;-78
2022/03/15 09:38:25;;;;;;;48.03;28.13;;;13.20;1.00;;;;;;5100858;28;20481;-78
2022/03/15 09:40:54;;;;;;;54.85;30.70;;;13.30;1.00;;;;;;5100393;28;20518;-78
2022/03/15 09:43:24;;;;;;;47.00;29.48;;;13.50;1.00;;;;;;5099429;28;20060;-77
2022/03/15 09:45:53;;;;;;;34.03;21.20;;;13.60;1.00;;;;;;5098780;28;20044;-77
2022/03/15 09:48:23;;;;;;;33.38;19.42;;;13.70;1.00;;;;;;5099875;28;20564;-78
2022/03/15 09:50:52;;;;;;;32.72;21.58;;;13.80;1.00;;;;;;5099908;28;20052;-79
2022/03/15 09:53:20;;;;;;;42.35;25.02;;;13.80;1.00;;;;;;5100160;28;20424;-76
2022/03/15 09:55:48;;;;;;;39.17;25.60;;;14.00;1.00;;;;;;5098166;28;20044;-77
2022/03/15 09:58:20;;;;;;;42.03;26.13;;;14.10;1.00;;;;;;5100128;28;20050;-79
2022/03/15 10:00:52;;;;;;;46.22;27.33;;;14.20;1.00;;;;;;5101072;28;20471;-78
2022/03/15 10:03:21;;;;;;;37.35;23.15;;;14.20;1.00;;;;;;5097991;28;20119;-79
2022/03/15 10:05:50;;;;;;;35.95;22.58;;;14.40;1.00;;;;;;5103091;28;20044;-79
2022/03/15 10:08:18;;;;;;;35.60;25.25;;;14.50;1.00;;;;;;5108196;28;20130;-79
2022/03/15 10:10:50;;;;;;;41.97;27.85;;;14.60;1.00;;;;;;5097600;28;20047;-79
2022/03/15 10:13:18;;;;;;;51.22;32.67;;;14.80;1.00;;;;;;5097922;28;20097;-79
2022/03/15 10:15:54;;;;;;;52.08;33.60;;;14.90;1.00;;;;;;5100356;28;20142;-78
2022/03/15 10:18:23;;;;;;;54.55;33.45;;;14.90;1.00;;;;;;5100792;28;20044;-80
2022/03/15 10:20:50;;;;;;;52.25;34.47;;;15.00;1.00;;;;;;5078359;28;20040;-80
2022/03/15 10:23:21;;;;;;;55.75;33.67;;;15.10;1.00;;;;;;5079785;28;20537;-78
2022/03/15 10:25:51;;;;;;;64.75;36.75;;;15.20;1.00;;;;;;5077893;28;20048;-77
2022/03/15 10:28:19;;;;;;;64.00;38.42;;;15.30;1.00;;;;;;5077979;28;20059;-78
2022/03/15 10:30:48;;;;;;;66.55;42.90;;;15.40;1.00;;;;;;5077019;28;20072;-78
2022/03/15 10:33:20;;;;;;;71.30;42.83;;;15.50;1.00;;;;;;5083227;28;20040;-79
2022/03/15 10:35:50;;;;;;;56.15;36.90;;;15.50;1.00;;;;;;5098699;28;20054;-78
2022/03/15 10:38:18;;;;;;;61.05;37.72;;;15.60;1.00;;;;;;5100790;28;20048;-78
2022/03/15 10:40:47;;;;;;;62.92;36.60;;;15.70;1.00;;;;;;5098041;28;20044;-78
2022/03/15 10:43:17;;;;;;;59.00;37.60;;;15.80;1.00;;;;;;5097352;28;20073;-77
2022/03/15 10:45:46;;;;;;;59.60;37.90;;;15.90;1.00;;;;;;5102196;28;20048;-79
2022/03/15 10:48:16;;;;;;;56.20;36.28;;;15.80;1.00;;;;;;5104019;28;20036;-80
2022/03/15 10:50:54;;;;;;;49.63;34.10;;;15.90;1.00;;;;;;5104799;28;20043;-80
2022/03/15 10:53:22;;;;;;;66.22;35.05;;;16.10;1.00;;;;;;5103450;28;20044;-78
2022/03/15 10:55:49;;;;;;;56.42;36.08;;;16.20;1.00;;;;;;5105192;28;20051;-77
2022/03/15 10:58:23;;;;;;;55.97;35.13;;;16.40;1.00;;;;;;5105435;28;20044;-79
2022/03/15 11:00:54;;;;;;;54.70;34.97;;;16.50;1.00;;;;;;5108169;28;20055;-78
2022/03/15 11:03:25;;;;;;;42.92;28.77;;;16.70;1.00;;;;;;5107805;28;20046;-78
2022/03/15 11:06:03;;;;;;;43.80;30.17;;;16.70;1.00;;;;;;5111340;28;20062;-77
2022/03/15 11:08:31;;;;;;;47.83;32.17;;;16.90;1.00;;;;;;5107209;28;20048;-79
2022/03/15 11:11:06;;;;;;;50.05;31.92;;;17.10;1.00;;;;;;5108167;28;20043;-78
2022/03/15 11:13:37;;;;;;;46.28;28.27;;;17.20;1.00;;;;;;5106942;28;20071;-79
2022/03/15 11:16:07;;;;;;;39.13;27.05;;;17.20;1.00;;;;;;5103965;28;20044;-79
2022/03/15 11:18:38;;;;;;;39.20;26.65;;;17.20;1.00;;;;;;5103292;28;20056;-80
2022/03/15 11:21:07;;;;;;;39.55;28.25;;;17.30;1.00;;;;;;5081330;28;20044;-79
2022/03/15 11:23:44;;;;;;;36.72;26.88;;;17.40;1.00;;;;;;5080982;28;20395;-78
2022/03/15 11:26:12;;;;;;;40.78;25.35;;;17.40;1.00;;;;;;5080600;28;20044;-79
2022/03/15 11:28:40;;;;;;;35.20;23.73;;;17.40;1.00;;;;;;5079523;28;20106;-79
2022/03/15 11:31:08;;;;;;;36.85;22.25;;;17.40;1.00;;;;;;5073955;28;20056;-77
2022/03/15 11:33:38;;;;;;;40.38;23.15;;;17.50;1.00;;;;;;5080122;28;20483;-77
2022/03/15 11:36:07;;;;;;;34.10;23.23;;;17.50;1.00;;;;;;5098407;28;20065;-77
2022/03/15 11:38:35;;;;;;;30.45;21.08;;;17.60;1.00;;;;;;5097489;28;20558;-78
2022/03/15 11:41:03;;;;;;;31.45;21.98;;;17.60;1.00;;;;;;5093653;28;20066;-77
2022/03/15 11:43:40;;;;;;;37.53;21.52;;;17.60;1.00;;;;;;5093185;28;20052;-77
2022/03/15 11:46:13;;;;;;;29.85;21.33;;;17.50;1.00;;;;;;5093160;28;20044;-76
2022/03/15 11:48:50;;;;;;;27.85;19.13;;;17.40;1.00;;;;;;5093114;28;20145;-77
2022/03/15 11:51:31;;;;;;;25.23;18.75;;;17.50;1.00;;;;;;5092741;28;20433;-77
2022/03/15 11:54:06;;;;;;;24.85;16.13;;;17.50;1.00;;;;;;5092762;28;20074;-76
2022/03/15 11:56:42;;;;;;;22.15;16.13;;;17.50;1.00;;;;;;5094010;28;20515;-76
2022/03/15 11:59:09;;;;;;;28.08;16.00;;;17.50;1.00;;;;;;5092349;28;20062;-76
2022/03/15 12:01:44;;;;;;;20.75;12.38;;;17.50;1.00;;;;;;5092407;28;20044;-77
2022/03/15 12:04:12;;;;;;;20.08;12.95;;;17.30;1.00;;;;;;5093186;28;20056;-76
2022/03/15 12:06:50;;;;;;;24.20;14.13;;;17.30;1.00;;;;;;5092160;28;20483;-77
2022/03/15 12:09:22;;;;;;;21.27;14.38;;;17.40;1.00;;;;;;5094189;28;20617;-77
2022/03/15 12:12:02;;;;;;;27.27;14.90;;;17.50;1.00;;;;;;5094591;28;20041;-75
2022/03/15 12:14:38;;;;;;;23.88;15.93;;;17.60;1.00;;;;;;5094607;28;20048;-76
2022/03/15 12:17:06;;;;;;;24.50;14.00;;;17.50;1.00;;;;;;5110877;28;20055;-77
2022/03/15 12:19:43;;;;;;;19.98;12.48;;;17.50;1.00;;;;;;5103725;28;20049;-77
2022/03/15 12:22:24;;;;;;;23.65;13.25;;;17.50;1.00;;;;;;5080210;28;20059;-77
2022/03/15 12:25:03;;;;;;;26.80;16.65;;;17.60;1.00;;;;;;5075520;28;20430;-77
2022/03/15 12:27:31;;;;;;;24.42;15.68;;;17.70;1.00;;;;;;5074476;28;20048;-77
2022/03/15 12:30:00;;;;;;;19.95;13.25;;;17.60;1.00;;;;;;5078269;28;20056;-77
2022/03/15 12:32:28;;;;;;;31.27;16.33;;;17.60;1.00;;;;;;5077650;28;20117;-77
2022/03/15 12:34:58;;;;;;;27.92;14.38;;;17.60;1.00;;;;;;5083069;28;20045;-76
2022/03/15 12:37:34;;;;;;;20.42;11.52;;;17.60;1.00;;;;;;5081812;28;20075;-77
2022/03/15 12:40:04;;;;;;;23.92;12.90;;;17.60;1.00;;;;;;5081549;28;20047;-76
2022/03/15 12:42:32;;;;;;;26.45;13.70;;;17.50;1.00;;;;;;5079169;28;20136;-76